createdAt,value
2022-11-21T00:02:13.295Z,-612.00
2022-11-21T00:07:20.599Z,-612.00
2022-11-21T00:12:27.843Z,-612.00
2022-11-21T00:17:35.026Z,-612.00
2022-11-21T00:22:42.283Z,-612.00
2022-11-21T00:27:49.602Z,-576.00
2022-11-21T00:32:56.786Z,-612.00
2022-11-21T00:38:04.037Z,-612.00
2022-11-21T00:43:11.282Z,-576.00
2022-11-21T00:48:18.515Z,-612.00
2022-11-21T00:53:25.752Z,-576.00
2022-11-21T00:58:32.955Z,-576.00
2022-11-21T01:03:40.150Z,-612.00
2022-11-21T01:08:47.311Z,-648.00
2022-11-21T01:13:54.522Z,-576.00
2022-11-21T01:19:01.729Z,-576.00
2022-11-21T01:24:08.890Z,-576.00
2022-11-21T01:29:16.115Z,-576.00
2022-11-21T01:34:23.296Z,-576.00
2022-11-21T01:39:30.522Z,-576.00
2022-11-21T01:44:37.724Z,-612.00
2022-11-21T01:49:45.031Z,-612.00
2022-11-21T01:54:52.247Z,-576.00
2022-11-21T01:59:59.459Z,-576.00
2022-11-21T02:05:06.623Z,-612.00
2022-11-21T02:10:13.833Z,-576.00
2022-11-21T02:15:21.126Z,-576.00
2022-11-21T02:20:28.290Z,-612.00
2022-11-21T02:25:35.500Z,-576.00
2022-11-21T02:30:42.766Z,-576.00
2022-11-21T02:35:49.959Z,-576.00
2022-11-21T02:40:57.154Z,-576.00
2022-11-21T02:46:04.401Z,-576.00
2022-11-21T02:51:11.608Z,-576.00
2022-11-21T02:56:18.863Z,-576.00
2022-11-21T03:01:26.192Z,-612.00
2022-11-21T03:06:33.341Z,-612.00
2022-11-21T03:11:40.581Z,-576.00
2022-11-21T03:16:47.811Z,-576.00
2022-11-21T03:21:54.993Z,-540.00
2022-11-21T03:27:02.197Z,-576.00
2022-11-21T03:32:09.395Z,-576.00
2022-11-21T03:37:16.515Z,-576.00
2022-11-21T03:42:23.708Z,-576.00
2022-11-21T03:47:30.940Z,-576.00
2022-11-21T03:52:38.140Z,-612.00
2022-11-21T03:57:45.328Z,-612.00
2022-11-21T04:02:53.891Z,-576.00
2022-11-21T04:08:01.218Z,-612.00
2022-11-21T04:13:08.621Z,-576.00
2022-11-21T04:18:15.894Z,-576.00
2022-11-21T04:23:23.123Z,-576.00
2022-11-21T04:28:30.402Z,-576.00
2022-11-21T04:33:37.656Z,-576.00
2022-11-21T04:38:44.929Z,-576.00
2022-11-21T04:43:52.170Z,-576.00
2022-11-21T04:48:59.429Z,-612.00
2022-11-21T04:54:06.606Z,-576.00
2022-11-21T04:59:13.836Z,-576.00
2022-11-21T05:04:21.147Z,-576.00
2022-11-21T05:09:28.358Z,-576.00
2022-11-21T05:14:35.614Z,-612.00
2022-11-21T05:19:43.035Z,-576.00
2022-11-21T05:24:50.267Z,-576.00
2022-11-21T05:29:57.468Z,-612.00
2022-11-21T05:35:04.707Z,-576.00
2022-11-21T05:40:11.894Z,-576.00
2022-11-21T05:45:19.083Z,-612.00
2022-11-21T05:50:26.356Z,-576.00
2022-11-21T05:55:33.622Z,-576.00
2022-11-21T06:00:40.884Z,-576.00
2022-11-21T06:05:48.156Z,-576.00
2022-11-21T06:10:55.341Z,-576.00
2022-11-21T06:16:02.544Z,-576.00
2022-11-21T06:21:09.736Z,-576.00
2022-11-21T06:26:17.032Z,-576.00
2022-11-21T06:31:24.261Z,-576.00
2022-11-21T06:36:31.455Z,-576.00
2022-11-21T06:41:38.634Z,-576.00
2022-11-21T06:46:50.663Z,-576.00
2022-11-21T06:51:53.083Z,-36.00
2022-11-21T06:57:00.226Z,900.00
2022-11-21T07:02:07.463Z,1080.00
2022-11-21T07:07:14.793Z,1404.00
2022-11-21T07:12:21.939Z,1800.00
2022-11-21T07:17:29.077Z,1728.00
2022-11-21T07:22:36.306Z,2664.00
2022-11-21T07:27:43.448Z,1620.00
2022-11-21T07:32:50.667Z,3420.00
2022-11-21T07:37:57.927Z,2304.00
2022-11-21T07:43:10.520Z,2376.00
2022-11-21T07:48:12.341Z,3060.00
2022-11-21T07:53:19.607Z,4104.00
2022-11-21T07:58:26.816Z,6048.00
2022-11-21T08:03:34.057Z,7596.00
2022-11-21T08:08:41.263Z,8496.00
2022-11-21T08:13:48.435Z,10368.00
2022-11-21T08:18:55.634Z,10764.00
2022-11-21T08:24:02.808Z,9792.00
2022-11-21T08:29:09.936Z,7416.00
2022-11-21T08:34:17.185Z,9324.00
2022-11-21T08:39:24.467Z,7992.00
2022-11-21T08:44:31.875Z,9720.00
2022-11-21T08:49:38.817Z,10152.00
2022-11-21T08:54:46.163Z,11304.00
2022-11-21T08:59:53.379Z,9540.00
2022-11-21T09:05:00.569Z,8604.00
2022-11-21T09:10:07.846Z,9900.00
2022-11-21T09:15:15.240Z,10728.00
2022-11-21T09:20:22.688Z,12816.00
2022-11-21T09:25:29.770Z,13104.00
2022-11-21T09:30:37.148Z,13608.00
2022-11-21T09:35:44.324Z,15084.00
2022-11-21T09:40:51.699Z,14112.00
2022-11-21T09:45:59.490Z,12348.00
2022-11-21T09:51:06.812Z,16416.00
2022-11-21T09:56:14.162Z,17748.00
2022-11-21T10:01:21.428Z,16848.00
2022-11-21T10:06:28.550Z,15516.00
2022-11-21T10:11:35.766Z,14580.00
2022-11-21T10:16:42.991Z,13788.00
2022-11-21T10:21:50.279Z,12888.00
2022-11-21T10:26:57.612Z,13032.00
2022-11-21T10:32:04.817Z,12780.00
2022-11-21T10:37:12.083Z,12204.00
2022-11-21T10:42:24.360Z,12204.00
2022-11-21T10:47:26.400Z,12636.00
2022-11-21T10:52:33.733Z,12420.00
2022-11-21T10:57:40.976Z,12708.00
2022-11-21T11:02:48.129Z,12528.00
2022-11-21T11:07:55.298Z,12672.00
2022-11-21T11:13:08.713Z,13176.00
2022-11-21T11:18:09.952Z,14076.00
2022-11-21T11:23:16.918Z,12564.00
2022-11-21T11:28:24.183Z,12708.00
2022-11-21T11:33:31.308Z,12348.00
2022-11-21T11:38:38.559Z,13032.00
2022-11-21T11:43:47.150Z,13860.00
2022-11-21T11:54:01.323Z,14760.00
2022-11-21T11:59:07.464Z,15696.00
2022-11-21T12:04:14.605Z,14832.00
2022-11-21T12:09:21.861Z,14076.00
2022-11-21T12:14:29.058Z,13896.00
2022-11-21T12:19:36.250Z,13320.00
2022-11-21T12:24:43.660Z,13212.00
2022-11-21T12:29:50.878Z,12996.00
2022-11-21T12:34:58.046Z,11808.00
2022-11-21T12:40:05.229Z,12492.00
2022-11-21T12:45:12.438Z,12492.00
2022-11-21T12:50:19.604Z,12204.00
2022-11-21T12:55:30.701Z,11664.00
2022-11-21T13:00:34.310Z,9720.00
2022-11-21T13:05:41.505Z,9756.00
2022-11-21T13:10:48.738Z,10296.00
2022-11-21T13:15:55.947Z,9936.00
2022-11-21T13:21:03.182Z,9540.00
2022-11-21T13:26:10.378Z,9576.00
2022-11-21T13:31:17.619Z,9000.00
2022-11-21T13:36:24.865Z,8532.00
2022-11-21T13:41:32.078Z,8856.00
2022-11-21T13:46:39.488Z,8352.00
2022-11-21T13:51:46.781Z,8208.00
2022-11-21T13:56:54.068Z,8208.00
2022-11-21T14:02:01.322Z,8604.00
2022-11-21T14:07:08.593Z,9900.00
2022-11-21T14:12:15.630Z,8352.00
2022-11-21T14:17:22.780Z,9000.00
2022-11-21T14:22:34.783Z,7704.00
2022-11-21T14:27:40.906Z,5868.00
2022-11-21T14:32:48.433Z,5580.00
2022-11-21T14:37:51.546Z,5652.00
2022-11-21T14:42:58.715Z,5904.00
2022-11-21T14:48:05.888Z,6264.00
2022-11-21T14:53:13.131Z,6048.00
2022-11-21T14:58:20.466Z,5328.00
2022-11-21T15:03:27.737Z,4392.00
2022-11-21T15:14:12.230Z,2844.00
2022-11-21T15:18:49.427Z,2232.00
2022-11-21T15:23:56.657Z,1656.00
2022-11-21T15:29:03.933Z,1044.00
2022-11-21T15:39:18.408Z,36.00
2022-11-21T15:44:25.579Z,-216.00
2022-11-21T15:49:33.596Z,-360.00
2022-11-21T15:54:39.967Z,-468.00
2022-11-21T15:59:47.173Z,-540.00
2022-11-21T16:04:54.413Z,-576.00
2022-11-21T16:10:01.593Z,-576.00
2022-11-21T16:15:08.798Z,-612.00
2022-11-21T16:20:16.056Z,-576.00
2022-11-21T16:25:23.287Z,-576.00
2022-11-21T16:30:30.505Z,-612.00
2022-11-21T16:35:37.896Z,-576.00
2022-11-21T16:40:44.966Z,-576.00
2022-11-21T16:45:52.416Z,-576.00
2022-11-21T16:50:59.794Z,-576.00
2022-11-21T16:56:06.990Z,-576.00
2022-11-21T17:01:14.535Z,-576.00
2022-11-21T17:06:22.563Z,-576.00
2022-11-21T17:11:30.041Z,-612.00
2022-11-21T17:16:37.793Z,-612.00
2022-11-21T17:21:45.494Z,-576.00
2022-11-21T17:26:53.082Z,-576.00
2022-11-21T17:32:00.694Z,-144.00
2022-11-21T17:37:08.337Z,-108.00
2022-11-21T17:42:15.618Z,-72.00
2022-11-21T17:47:23.072Z,-108.00
2022-11-21T17:52:30.698Z,-72.00
2022-11-21T17:57:38.148Z,-72.00
2022-11-21T18:02:45.537Z,-504.00
2022-11-21T18:07:52.943Z,-540.00
2022-11-21T18:13:00.496Z,-540.00
2022-11-21T18:18:08.095Z,-540.00
2022-11-21T18:23:15.746Z,-504.00
2022-11-21T18:28:23.064Z,-540.00
2022-11-21T18:33:30.479Z,-576.00
2022-11-21T18:39:02.156Z,-576.00
2022-11-21T18:43:47.025Z,-612.00
2022-11-21T18:49:04.872Z,-576.00
2022-11-21T18:54:01.324Z,-612.00
2022-11-21T18:59:08.913Z,-612.00
2022-11-21T19:04:16.525Z,-576.00
2022-11-21T19:09:29.405Z,-576.00
2022-11-21T19:14:31.982Z,-612.00
2022-11-21T19:19:39.571Z,-576.00
2022-11-21T19:24:47.170Z,-576.00
2022-11-21T19:29:54.805Z,-576.00
2022-11-21T19:35:02.516Z,-576.00
2022-11-21T19:40:10.160Z,9000.00
2022-11-21T19:45:17.744Z,8856.00
2022-11-21T19:50:25.363Z,8748.00
2022-11-21T19:55:33.103Z,8856.00
2022-11-21T20:00:40.617Z,8784.00
2022-11-21T20:05:48.202Z,8532.00
2022-11-21T20:10:55.849Z,8496.00
2022-11-21T20:16:03.536Z,8532.00
2022-11-21T20:21:10.879Z,8532.00
2022-11-21T20:26:18.381Z,8352.00
2022-11-21T20:31:25.979Z,8532.00
2022-11-21T20:36:33.693Z,8640.00
2022-11-21T20:41:41.328Z,8568.00
2022-11-21T20:46:48.920Z,8604.00
2022-11-21T20:57:03.773Z,8352.00
2022-11-21T21:02:11.507Z,8352.00
2022-11-21T21:07:18.807Z,8388.00
2022-11-21T21:12:26.027Z,8460.00
2022-11-21T21:17:33.177Z,8424.00
2022-11-21T21:22:40.361Z,8604.00
2022-11-21T21:27:47.620Z,8748.00
2022-11-21T21:32:54.773Z,8244.00
2022-11-21T21:38:07.595Z,8676.00
2022-11-21T21:43:09.147Z,8712.00
2022-11-21T21:48:16.305Z,8568.00
2022-11-21T21:53:23.506Z,8604.00
2022-11-21T21:58:30.663Z,8604.00
2022-11-21T22:03:37.801Z,8496.00
2022-11-21T22:08:45.018Z,8532.00
2022-11-21T22:13:52.319Z,8532.00
2022-11-21T22:18:59.530Z,8640.00
2022-11-21T22:24:24.779Z,8460.00
2022-11-21T22:29:13.965Z,8028.00
2022-11-21T22:34:21.088Z,8316.00
2022-11-21T22:39:28.357Z,8280.00
2022-11-21T22:44:35.585Z,8460.00
2022-11-21T22:49:42.792Z,8352.00
2022-11-21T22:54:49.954Z,8424.00
2022-11-21T22:59:57.187Z,8352.00
2022-11-21T23:05:04.414Z,8424.00
2022-11-21T23:10:11.716Z,8424.00
2022-11-21T23:15:18.947Z,8424.00
2022-11-21T23:20:26.097Z,8388.00
2022-11-21T23:25:33.309Z,8388.00
2022-11-21T23:30:40.517Z,8316.00
2022-11-21T23:35:47.703Z,8280.00
2022-11-21T23:40:54.907Z,8316.00
2022-11-21T23:46:02.082Z,8496.00
2022-11-21T23:51:09.211Z,7956.00
2022-11-21T23:56:16.368Z,8316.00
